sensor_id;sensor_type;location;lat;lon;timestamp;P1;durP1;ratioP1;P2;durP2;ratioP2
39050;SDS011;24805;55.852;37.644;2022-07-25T00:02:58;6.53;;;4.30;;
39050;SDS011;24805;55.852;37.644;2022-07-25T00:08:00;5.78;;;3.97;;
39050;SDS011;24805;55.852;37.644;2022-07-25T00:13:02;7.85;;;4.40;;
39050;SDS011;24805;55.852;37.644;2022-07-25T00:18:05;8.70;;;4.85;;
39050;SDS011;24805;55.852;37.644;2022-07-25T00:23:07;6.18;;;3.97;;
39050;SDS011;24805;55.852;37.644;2022-07-25T00:28:09;11.18;;;4.82;;
39050;SDS011;24805;55.852;37.644;2022-07-25T00:33:11;7.38;;;4.20;;
39050;SDS011;24805;55.852;37.644;2022-07-25T00:38:13;7.53;;;3.92;;
39050;SDS011;24805;55.852;37.644;2022-07-25T00:43:15;9.65;;;4.85;;
39050;SDS011;24805;55.852;37.644;2022-07-25T00:48:17;9.43;;;5.50;;
39050;SDS011;24805;55.852;37.644;2022-07-25T00:53:20;14.57;;;6.30;;
39050;SDS011;24805;55.852;37.644;2022-07-25T00:58:22;10.00;;;5.78;;
39050;SDS011;24805;55.852;37.644;2022-07-25T01:03:25;12.15;;;6.07;;
39050;SDS011;24805;55.852;37.644;2022-07-25T01:08:27;11.18;;;5.55;;
39050;SDS011;24805;55.852;37.644;2022-07-25T01:13:31;12.70;;;5.90;;
39050;SDS011;24805;55.852;37.644;2022-07-25T01:18:35;9.88;;;6.25;;
39050;SDS011;24805;55.852;37.644;2022-07-25T01:23:37;14.18;;;6.00;;
39050;SDS011;24805;55.852;37.644;2022-07-25T01:28:39;9.45;;;5.90;;
39050;SDS011;24805;55.852;37.644;2022-07-25T01:33:42;11.70;;;6.00;;
39050;SDS011;24805;55.852;37.644;2022-07-25T01:38:44;11.65;;;5.85;;
39050;SDS011;24805;55.852;37.644;2022-07-25T01:43:46;8.50;;;5.38;;
39050;SDS011;24805;55.852;37.644;2022-07-25T01:48:48;11.20;;;6.00;;
39050;SDS011;24805;55.852;37.644;2022-07-25T01:53:50;7.05;;;5.20;;
39050;SDS011;24805;55.852;37.644;2022-07-25T01:58:52;8.63;;;5.80;;
39050;SDS011;24805;55.852;37.644;2022-07-25T02:03:54;7.68;;;5.50;;
39050;SDS011;24805;55.852;37.644;2022-07-25T02:08:56;7.22;;;5.50;;
39050;SDS011;24805;55.852;37.644;2022-07-25T02:13:58;6.03;;;5.07;;
39050;SDS011;24805;55.852;37.644;2022-07-25T02:19:00;7.65;;;5.30;;
39050;SDS011;24805;55.852;37.644;2022-07-25T02:24:03;5.85;;;5.22;;
39050;SDS011;24805;55.852;37.644;2022-07-25T02:29:05;8.10;;;5.25;;
39050;SDS011;24805;55.852;37.644;2022-07-25T02:34:08;7.22;;;5.57;;
39050;SDS011;24805;55.852;37.644;2022-07-25T02:39:10;7.07;;;5.07;;
39050;SDS011;24805;55.852;37.644;2022-07-25T02:44:12;6.00;;;4.90;;
39050;SDS011;24805;55.852;37.644;2022-07-25T02:49:15;6.78;;;5.35;;
39050;SDS011;24805;55.852;37.644;2022-07-25T02:54:17;9.68;;;5.50;;
39050;SDS011;24805;55.852;37.644;2022-07-25T02:59:20;8.13;;;5.18;;
39050;SDS011;24805;55.852;37.644;2022-07-25T03:04:22;5.40;;;4.88;;
39050;SDS011;24805;55.852;37.644;2022-07-25T03:09:24;8.43;;;5.15;;
39050;SDS011;24805;55.852;37.644;2022-07-25T03:14:26;7.72;;;5.10;;
39050;SDS011;24805;55.852;37.644;2022-07-25T03:19:29;7.40;;;5.63;;
39050;SDS011;24805;55.852;37.644;2022-07-25T03:24:31;7.20;;;5.20;;
39050;SDS011;24805;55.852;37.644;2022-07-25T03:29:33;7.03;;;5.15;;
39050;SDS011;24805;55.852;37.644;2022-07-25T03:34:35;6.85;;;5.43;;
39050;SDS011;24805;55.852;37.644;2022-07-25T03:39:37;7.18;;;5.00;;
39050;SDS011;24805;55.852;37.644;2022-07-25T03:44:39;10.55;;;5.38;;
39050;SDS011;24805;55.852;37.644;2022-07-25T03:49:41;8.90;;;5.15;;
39050;SDS011;24805;55.852;37.644;2022-07-25T03:54:43;8.95;;;5.68;;
39050;SDS011;24805;55.852;37.644;2022-07-25T03:59:46;6.10;;;5.50;;
39050;SDS011;24805;55.852;37.644;2022-07-25T04:04:48;7.32;;;4.90;;
39050;SDS011;24805;55.852;37.644;2022-07-25T04:09:50;6.82;;;5.00;;
39050;SDS011;24805;55.852;37.644;2022-07-25T04:14:52;7.03;;;4.47;;
39050;SDS011;24805;55.852;37.644;2022-07-25T04:19:54;6.60;;;4.68;;
39050;SDS011;24805;55.852;37.644;2022-07-25T04:24:57;8.65;;;5.28;;
39050;SDS011;24805;55.852;37.644;2022-07-25T04:29:59;7.05;;;5.57;;
39050;SDS011;24805;55.852;37.644;2022-07-25T04:35:01;8.57;;;5.57;;
39050;SDS011;24805;55.852;37.644;2022-07-25T04:40:04;6.65;;;5.35;;
39050;SDS011;24805;55.852;37.644;2022-07-25T04:45:07;7.38;;;5.38;;
39050;SDS011;24805;55.852;37.644;2022-07-25T04:50:09;11.20;;;5.65;;
39050;SDS011;24805;55.852;37.644;2022-07-25T04:55:11;6.07;;;5.32;;
39050;SDS011;24805;55.852;37.644;2022-07-25T05:00:14;7.95;;;4.97;;
39050;SDS011;24805;55.852;37.644;2022-07-25T05:05:17;7.30;;;4.30;;
39050;SDS011;24805;55.852;37.644;2022-07-25T05:10:23;5.80;;;4.38;;
39050;SDS011;24805;55.852;37.644;2022-07-25T05:15:26;10.38;;;5.28;;
39050;SDS011;24805;55.852;37.644;2022-07-25T05:20:28;6.05;;;4.63;;
39050;SDS011;24805;55.852;37.644;2022-07-25T05:25:30;6.25;;;4.13;;
39050;SDS011;24805;55.852;37.644;2022-07-25T05:30:32;6.38;;;5.18;;
39050;SDS011;24805;55.852;37.644;2022-07-25T05:35:40;7.75;;;4.50;;
39050;SDS011;24805;55.852;37.644;2022-07-25T05:40:42;4.45;;;3.95;;
39050;SDS011;24805;55.852;37.644;2022-07-25T05:45:46;4.35;;;3.65;;
39050;SDS011;24805;55.852;37.644;2022-07-25T05:50:48;7.80;;;4.20;;
39050;SDS011;24805;55.852;37.644;2022-07-25T05:55:50;5.97;;;3.45;;
39050;SDS011;24805;55.852;37.644;2022-07-25T06:00:52;5.45;;;3.55;;
39050;SDS011;24805;55.852;37.644;2022-07-25T06:05:54;5.07;;;3.15;;
39050;SDS011;24805;55.852;37.644;2022-07-25T06:10:57;5.78;;;3.03;;
39050;SDS011;24805;55.852;37.644;2022-07-25T06:16:00;8.57;;;4.00;;
39050;SDS011;24805;55.852;37.644;2022-07-25T06:21:03;4.63;;;3.80;;
39050;SDS011;24805;55.852;37.644;2022-07-25T06:26:08;8.73;;;3.72;;
39050;SDS011;24805;55.852;37.644;2022-07-25T06:31:11;5.78;;;3.47;;
39050;SDS011;24805;55.852;37.644;2022-07-25T06:36:13;5.18;;;3.15;;
39050;SDS011;24805;55.852;37.644;2022-07-25T06:41:15;5.78;;;3.35;;
39050;SDS011;24805;55.852;37.644;2022-07-25T06:46:17;4.97;;;2.95;;
39050;SDS011;24805;55.852;37.644;2022-07-25T06:51:19;5.35;;;3.63;;
39050;SDS011;24805;55.852;37.644;2022-07-25T06:56:23;4.80;;;3.10;;
39050;SDS011;24805;55.852;37.644;2022-07-25T07:01:25;4.40;;;3.40;;
39050;SDS011;24805;55.852;37.644;2022-07-25T07:06:28;11.18;;;4.18;;
39050;SDS011;24805;55.852;37.644;2022-07-25T07:11:30;4.57;;;3.83;;
39050;SDS011;24805;55.852;37.644;2022-07-25T07:16:34;5.40;;;3.10;;
39050;SDS011;24805;55.852;37.644;2022-07-25T07:21:37;6.63;;;4.60;;
39050;SDS011;24805;55.852;37.644;2022-07-25T07:26:40;3.53;;;2.75;;
39050;SDS011;24805;55.852;37.644;2022-07-25T07:31:42;4.22;;;3.28;;
39050;SDS011;24805;55.852;37.644;2022-07-25T07:36:44;7.20;;;3.00;;
39050;SDS011;24805;55.852;37.644;2022-07-25T07:41:46;6.18;;;3.40;;
39050;SDS011;24805;55.852;37.644;2022-07-25T07:46:48;7.80;;;4.03;;
39050;SDS011;24805;55.852;37.644;2022-07-25T07:51:51;6.72;;;3.72;;
39050;SDS011;24805;55.852;37.644;2022-07-25T07:56:53;6.70;;;3.70;;
39050;SDS011;24805;55.852;37.644;2022-07-25T08:01:55;6.07;;;3.58;;
39050;SDS011;24805;55.852;37.644;2022-07-25T08:06:57;7.13;;;4.07;;
39050;SDS011;24805;55.852;37.644;2022-07-25T08:11:59;7.68;;;4.70;;
39050;SDS011;24805;55.852;37.644;2022-07-25T08:17:01;3.83;;;2.70;;
39050;SDS011;24805;55.852;37.644;2022-07-25T08:22:04;6.30;;;2.40;;
39050;SDS011;24805;55.852;37.644;2022-07-25T08:27:06;4.90;;;2.17;;
39050;SDS011;24805;55.852;37.644;2022-07-25T08:32:08;5.30;;;2.42;;
39050;SDS011;24805;55.852;37.644;2022-07-25T08:37:11;3.47;;;1.77;;
39050;SDS011;24805;55.852;37.644;2022-07-25T08:42:13;1.90;;;1.50;;
39050;SDS011;24805;55.852;37.644;2022-07-25T08:47:16;1.85;;;1.58;;
39050;SDS011;24805;55.852;37.644;2022-07-25T08:52:18;2.85;;;2.10;;
39050;SDS011;24805;55.852;37.644;2022-07-25T08:57:21;4.20;;;1.90;;
39050;SDS011;24805;55.852;37.644;2022-07-25T09:02:24;3.38;;;2.00;;
39050;SDS011;24805;55.852;37.644;2022-07-25T09:07:35;2.70;;;1.40;;
39050;SDS011;24805;55.852;37.644;2022-07-25T09:12:39;5.57;;;2.53;;
39050;SDS011;24805;55.852;37.644;2022-07-25T09:17:48;7.03;;;2.63;;
39050;SDS011;24805;55.852;37.644;2022-07-25T09:22:51;4.00;;;2.47;;
39050;SDS011;24805;55.852;37.644;2022-07-25T09:27:53;5.25;;;2.72;;
39050;SDS011;24805;55.852;37.644;2022-07-25T09:32:59;5.82;;;5.07;;
39050;SDS011;24805;55.852;37.644;2022-07-25T09:38:05;4.03;;;2.28;;
39050;SDS011;24805;55.852;37.644;2022-07-25T09:43:12;6.50;;;5.73;;
39050;SDS011;24805;55.852;37.644;2022-07-25T09:48:16;3.95;;;3.03;;
39050;SDS011;24805;55.852;37.644;2022-07-25T09:53:20;3.75;;;2.88;;
39050;SDS011;24805;55.852;37.644;2022-07-25T09:58:23;3.15;;;2.50;;
39050;SDS011;24805;55.852;37.644;2022-07-25T10:09:10;2.92;;;2.20;;
39050;SDS011;24805;55.852;37.644;2022-07-25T10:14:14;3.10;;;2.03;;
39050;SDS011;24805;55.852;37.644;2022-07-25T10:19:16;3.50;;;2.08;;
39050;SDS011;24805;55.852;37.644;2022-07-25T10:25:06;2.88;;;2.58;;
39050;SDS011;24805;55.852;37.644;2022-07-25T10:30:25;5.10;;;3.25;;
39050;SDS011;24805;55.852;37.644;2022-07-25T10:35:29;3.90;;;2.97;;
39050;SDS011;24805;55.852;37.644;2022-07-25T10:40:38;2.97;;;2.17;;
39050;SDS011;24805;55.852;37.644;2022-07-25T10:51:00;2.70;;;2.20;;
39050;SDS011;24805;55.852;37.644;2022-07-25T10:56:06;5.43;;;3.47;;
39050;SDS011;24805;55.852;37.644;2022-07-25T11:06:36;3.55;;;3.25;;
39050;SDS011;24805;55.852;37.644;2022-07-25T11:11:40;4.20;;;2.22;;
39050;SDS011;24805;55.852;37.644;2022-07-25T11:16:50;1.88;;;1.60;;
39050;SDS011;24805;55.852;37.644;2022-07-25T11:21:55;2.58;;;1.95;;
39050;SDS011;24805;55.852;37.644;2022-07-25T11:26:58;3.80;;;2.15;;
39050;SDS011;24805;55.852;37.644;2022-07-25T11:32:01;2.55;;;1.73;;
39050;SDS011;24805;55.852;37.644;2022-07-25T11:37:06;9.65;;;3.40;;
39050;SDS011;24805;55.852;37.644;2022-07-25T11:42:15;4.50;;;2.30;;
39050;SDS011;24805;55.852;37.644;2022-07-25T11:47:27;4.88;;;3.15;;
39050;SDS011;24805;55.852;37.644;2022-07-25T11:52:34;11.77;;;8.68;;
39050;SDS011;24805;55.852;37.644;2022-07-25T11:57:39;4.97;;;4.35;;
39050;SDS011;24805;55.852;37.644;2022-07-25T12:02:45;3.85;;;2.95;;
39050;SDS011;24805;55.852;37.644;2022-07-25T12:07:52;5.85;;;3.53;;
39050;SDS011;24805;55.852;37.644;2022-07-25T12:12:55;4.78;;;2.47;;
39050;SDS011;24805;55.852;37.644;2022-07-25T12:17:57;3.42;;;2.75;;
39050;SDS011;24805;55.852;37.644;2022-07-25T12:23:01;7.38;;;2.22;;
39050;SDS011;24805;55.852;37.644;2022-07-25T12:28:05;2.97;;;2.50;;
39050;SDS011;24805;55.852;37.644;2022-07-25T12:33:08;3.33;;;2.42;;
39050;SDS011;24805;55.852;37.644;2022-07-25T12:38:11;4.05;;;2.25;;
39050;SDS011;24805;55.852;37.644;2022-07-25T12:43:15;3.25;;;2.53;;
39050;SDS011;24805;55.852;37.644;2022-07-25T12:48:17;4.18;;;1.90;;
39050;SDS011;24805;55.852;37.644;2022-07-25T12:53:19;4.63;;;2.13;;
39050;SDS011;24805;55.852;37.644;2022-07-25T12:58:21;4.07;;;1.90;;
39050;SDS011;24805;55.852;37.644;2022-07-25T13:03:23;7.10;;;2.15;;
39050;SDS011;24805;55.852;37.644;2022-07-25T13:08:25;4.13;;;2.08;;
39050;SDS011;24805;55.852;37.644;2022-07-25T13:13:28;5.38;;;2.25;;
39050;SDS011;24805;55.852;37.644;2022-07-25T13:18:30;2.65;;;2.45;;
39050;SDS011;24805;55.852;37.644;2022-07-25T13:23:32;4.68;;;2.28;;
39050;SDS011;24805;55.852;37.644;2022-07-25T13:28:35;3.00;;;2.63;;
39050;SDS011;24805;55.852;37.644;2022-07-25T13:33:37;4.32;;;2.58;;
39050;SDS011;24805;55.852;37.644;2022-07-25T13:38:39;3.28;;;2.50;;
39050;SDS011;24805;55.852;37.644;2022-07-25T13:43:42;5.18;;;2.13;;
39050;SDS011;24805;55.852;37.644;2022-07-25T13:48:44;4.10;;;2.33;;
39050;SDS011;24805;55.852;37.644;2022-07-25T13:53:46;4.25;;;2.42;;
39050;SDS011;24805;55.852;37.644;2022-07-25T13:58:48;7.07;;;2.53;;
39050;SDS011;24805;55.852;37.644;2022-07-25T14:03:50;4.78;;;2.95;;
39050;SDS011;24805;55.852;37.644;2022-07-25T14:08:52;6.75;;;2.70;;
39050;SDS011;24805;55.852;37.644;2022-07-25T14:13:55;5.43;;;3.10;;
39050;SDS011;24805;55.852;37.644;2022-07-25T14:18:57;6.35;;;2.78;;
39050;SDS011;24805;55.852;37.644;2022-07-25T14:23:59;4.95;;;2.60;;
39050;SDS011;24805;55.852;37.644;2022-07-25T14:29:01;4.20;;;2.80;;
39050;SDS011;24805;55.852;37.644;2022-07-25T14:34:04;5.05;;;2.75;;
39050;SDS011;24805;55.852;37.644;2022-07-25T14:39:06;4.78;;;3.08;;
39050;SDS011;24805;55.852;37.644;2022-07-25T14:44:09;4.05;;;2.95;;
39050;SDS011;24805;55.852;37.644;2022-07-25T14:49:12;3.78;;;2.65;;
39050;SDS011;24805;55.852;37.644;2022-07-25T14:54:15;3.90;;;2.30;;
39050;SDS011;24805;55.852;37.644;2022-07-25T14:59:22;6.95;;;2.83;;
39050;SDS011;24805;55.852;37.644;2022-07-25T15:04:25;3.50;;;2.97;;
39050;SDS011;24805;55.852;37.644;2022-07-25T15:09:31;4.38;;;2.58;;
39050;SDS011;24805;55.852;37.644;2022-07-25T15:14:33;4.50;;;2.60;;
39050;SDS011;24805;55.852;37.644;2022-07-25T15:19:36;5.15;;;2.30;;
39050;SDS011;24805;55.852;37.644;2022-07-25T15:24:38;2.50;;;2.22;;
39050;SDS011;24805;55.852;37.644;2022-07-25T15:30:00;6.05;;;2.78;;
39050;SDS011;24805;55.852;37.644;2022-07-25T15:35:04;6.10;;;2.50;;
39050;SDS011;24805;55.852;37.644;2022-07-25T15:40:07;3.00;;;2.10;;
39050;SDS011;24805;55.852;37.644;2022-07-25T15:45:12;3.92;;;2.40;;
39050;SDS011;24805;55.852;37.644;2022-07-25T15:50:37;12.82;;;2.90;;
39050;SDS011;24805;55.852;37.644;2022-07-25T15:55:41;6.70;;;2.50;;
39050;SDS011;24805;55.852;37.644;2022-07-25T16:00:43;6.78;;;2.42;;
39050;SDS011;24805;55.852;37.644;2022-07-25T16:05:45;3.30;;;2.40;;
39050;SDS011;24805;55.852;37.644;2022-07-25T16:10:48;3.50;;;2.42;;
39050;SDS011;24805;55.852;37.644;2022-07-25T16:15:50;6.93;;;2.53;;
39050;SDS011;24805;55.852;37.644;2022-07-25T16:20:52;14.70;;;6.10;;
39050;SDS011;24805;55.852;37.644;2022-07-25T16:25:54;8.32;;;4.20;;
39050;SDS011;24805;55.852;37.644;2022-07-25T16:30:56;3.42;;;2.10;;
39050;SDS011;24805;55.852;37.644;2022-07-25T16:35:58;2.17;;;0.90;;
39050;SDS011;24805;55.852;37.644;2022-07-25T16:41:01;1.20;;;0.55;;
39050;SDS011;24805;55.852;37.644;2022-07-25T16:46:03;0.60;;;0.30;;
39050;SDS011;24805;55.852;37.644;2022-07-25T16:51:06;1.17;;;0.40;;
39050;SDS011;24805;55.852;37.644;2022-07-25T16:56:09;0.50;;;0.30;;
39050;SDS011;24805;55.852;37.644;2022-07-25T17:01:11;0.50;;;0.20;;
39050;SDS011;24805;55.852;37.644;2022-07-25T17:06:14;0.60;;;0.20;;
39050;SDS011;24805;55.852;37.644;2022-07-25T17:11:17;0.60;;;0.20;;
39050;SDS011;24805;55.852;37.644;2022-07-25T17:16:20;1.42;;;0.30;;
39050;SDS011;24805;55.852;37.644;2022-07-25T17:21:23;0.47;;;0.15;;
39050;SDS011;24805;55.852;37.644;2022-07-25T17:26:25;0.95;;;0.20;;
39050;SDS011;24805;55.852;37.644;2022-07-25T17:31:27;0.60;;;0.20;;
39050;SDS011;24805;55.852;37.644;2022-07-25T17:36:29;0.50;;;0.17;;
39050;SDS011;24805;55.852;37.644;2022-07-25T17:41:31;0.82;;;0.35;;
39050;SDS011;24805;55.852;37.644;2022-07-25T17:46:33;0.35;;;0.10;;
39050;SDS011;24805;55.852;37.644;2022-07-25T17:51:36;0.85;;;0.30;;
39050;SDS011;24805;55.852;37.644;2022-07-25T17:56:38;0.30;;;0.10;;
39050;SDS011;24805;55.852;37.644;2022-07-25T18:01:40;0.70;;;0.35;;
39050;SDS011;24805;55.852;37.644;2022-07-25T18:06:43;0.43;;;0.20;;
39050;SDS011;24805;55.852;37.644;2022-07-25T18:11:45;0.55;;;0.20;;
39050;SDS011;24805;55.852;37.644;2022-07-25T18:16:48;0.40;;;0.10;;
39050;SDS011;24805;55.852;37.644;2022-07-25T18:21:50;0.98;;;0.20;;
39050;SDS011;24805;55.852;37.644;2022-07-25T18:26:53;0.25;;;0.10;;
39050;SDS011;24805;55.852;37.644;2022-07-25T18:31:55;0.40;;;0.20;;
39050;SDS011;24805;55.852;37.644;2022-07-25T18:36:57;1.02;;;0.20;;
39050;SDS011;24805;55.852;37.644;2022-07-25T18:42:00;0.45;;;0.20;;
39050;SDS011;24805;55.852;37.644;2022-07-25T18:47:02;0.80;;;0.35;;
39050;SDS011;24805;55.852;37.644;2022-07-25T18:52:05;1.17;;;0.30;;
39050;SDS011;24805;55.852;37.644;2022-07-25T18:57:07;0.47;;;0.20;;
39050;SDS011;24805;55.852;37.644;2022-07-25T19:02:09;0.50;;;0.17;;
39050;SDS011;24805;55.852;37.644;2022-07-25T19:07:12;0.30;;;0.10;;
39050;SDS011;24805;55.852;37.644;2022-07-25T19:12:14;0.60;;;0.30;;
39050;SDS011;24805;55.852;37.644;2022-07-25T19:17:16;0.57;;;0.22;;
39050;SDS011;24805;55.852;37.644;2022-07-25T19:22:18;0.60;;;0.30;;
39050;SDS011;24805;55.852;37.644;2022-07-25T19:27:20;1.00;;;0.40;;
39050;SDS011;24805;55.852;37.644;2022-07-25T19:32:25;0.95;;;0.45;;
39050;SDS011;24805;55.852;37.644;2022-07-25T19:37:27;1.58;;;0.85;;
39050;SDS011;24805;55.852;37.644;2022-07-25T19:42:30;1.05;;;0.50;;
39050;SDS011;24805;55.852;37.644;2022-07-25T19:47:32;1.95;;;1.25;;
39050;SDS011;24805;55.852;37.644;2022-07-25T19:52:34;2.25;;;1.20;;
39050;SDS011;24805;55.852;37.644;2022-07-25T19:57:37;2.25;;;1.52;;
39050;SDS011;24805;55.852;37.644;2022-07-25T20:02:39;2.92;;;1.75;;
39050;SDS011;24805;55.852;37.644;2022-07-25T20:07:43;4.28;;;2.30;;
39050;SDS011;24805;55.852;37.644;2022-07-25T20:12:45;2.95;;;2.30;;
39050;SDS011;24805;55.852;37.644;2022-07-25T20:17:48;3.83;;;2.40;;
39050;SDS011;24805;55.852;37.644;2022-07-25T20:22:50;3.75;;;2.78;;
39050;SDS011;24805;55.852;37.644;2022-07-25T20:27:52;4.45;;;2.42;;
39050;SDS011;24805;55.852;37.644;2022-07-25T20:32:54;8.48;;;7.57;;
39050;SDS011;24805;55.852;37.644;2022-07-25T20:37:57;9.10;;;8.20;;
39050;SDS011;24805;55.852;37.644;2022-07-25T20:42:59;9.77;;;8.13;;
39050;SDS011;24805;55.852;37.644;2022-07-25T20:48:01;11.23;;;8.40;;
39050;SDS011;24805;55.852;37.644;2022-07-25T20:53:04;8.45;;;7.53;;
39050;SDS011;24805;55.852;37.644;2022-07-25T20:58:07;9.25;;;8.07;;
39050;SDS011;24805;55.852;37.644;2022-07-25T21:03:09;10.35;;;7.72;;
39050;SDS011;24805;55.852;37.644;2022-07-25T21:08:11;8.00;;;7.20;;
39050;SDS011;24805;55.852;37.644;2022-07-25T21:13:13;8.30;;;7.50;;
39050;SDS011;24805;55.852;37.644;2022-07-25T21:18:19;8.15;;;7.35;;
39050;SDS011;24805;55.852;37.644;2022-07-25T21:23:21;8.82;;;7.85;;
39050;SDS011;24805;55.852;37.644;2022-07-25T21:28:23;8.73;;;7.85;;
39050;SDS011;24805;55.852;37.644;2022-07-25T21:33:26;9.57;;;7.85;;
39050;SDS011;24805;55.852;37.644;2022-07-25T21:38:28;9.00;;;7.57;;
39050;SDS011;24805;55.852;37.644;2022-07-25T21:43:35;8.85;;;8.02;;
39050;SDS011;24805;55.852;37.644;2022-07-25T21:48:37;8.57;;;7.78;;
39050;SDS011;24805;55.852;37.644;2022-07-25T21:53:58;7.60;;;6.68;;
39050;SDS011;24805;55.852;37.644;2022-07-25T21:59:00;10.63;;;8.00;;
39050;SDS011;24805;55.852;37.644;2022-07-25T22:04:02;10.60;;;9.27;;
39050;SDS011;24805;55.852;37.644;2022-07-25T22:09:05;10.55;;;8.38;;
39050;SDS011;24805;55.852;37.644;2022-07-25T22:14:08;8.75;;;7.95;;
39050;SDS011;24805;55.852;37.644;2022-07-25T22:19:10;8.85;;;8.00;;
39050;SDS011;24805;55.852;37.644;2022-07-25T22:24:12;10.18;;;8.15;;
39050;SDS011;24805;55.852;37.644;2022-07-25T22:29:15;8.95;;;8.10;;
39050;SDS011;24805;55.852;37.644;2022-07-25T22:34:17;9.23;;;8.38;;
39050;SDS011;24805;55.852;37.644;2022-07-25T22:39:19;8.57;;;7.68;;
39050;SDS011;24805;55.852;37.644;2022-07-25T22:44:21;10.45;;;8.35;;
39050;SDS011;24805;55.852;37.644;2022-07-25T22:49:23;8.23;;;7.40;;
39050;SDS011;24805;55.852;37.644;2022-07-25T22:54:26;9.55;;;8.63;;
39050;SDS011;24805;55.852;37.644;2022-07-25T22:59:28;9.82;;;8.88;;
39050;SDS011;24805;55.852;37.644;2022-07-25T23:04:31;9.27;;;8.40;;
39050;SDS011;24805;55.852;37.644;2022-07-25T23:09:33;10.05;;;9.02;;
39050;SDS011;24805;55.852;37.644;2022-07-25T23:14:37;9.82;;;8.82;;
39050;SDS011;24805;55.852;37.644;2022-07-25T23:19:39;11.18;;;8.02;;
39050;SDS011;24805;55.852;37.644;2022-07-25T23:24:42;10.20;;;9.20;;
39050;SDS011;24805;55.852;37.644;2022-07-25T23:29:45;10.18;;;9.18;;
39050;SDS011;24805;55.852;37.644;2022-07-25T23:34:47;9.30;;;8.32;;
39050;SDS011;24805;55.852;37.644;2022-07-25T23:39:49;9.48;;;8.57;;
39050;SDS011;24805;55.852;37.644;2022-07-25T23:44:51;9.13;;;8.23;;
39050;SDS011;24805;55.852;37.644;2022-07-25T23:49:55;9.27;;;8.30;;
39050;SDS011;24805;55.852;37.644;2022-07-25T23:54:57;9.95;;;8.52;;
